sensor_id;sensor_type;location;lat;lon;timestamp;pressure;altitude;pressure_sealevel;temperature;humidity
18323;BME280;9287;49.456;11.064;2023-11-18T00:01:20;98943.13;;;4.94;100.00
18323;BME280;9287;49.456;11.064;2023-11-18T00:03:48;98945.84;;;4.94;100.00
18323;BME280;9287;49.456;11.064;2023-11-18T00:06:18;98951.25;;;4.94;100.00
18323;BME280;9287;49.456;11.064;2023-11-18T00:08:45;98955.03;;;4.93;100.00
18323;BME280;9287;49.456;11.064;2023-11-18T00:11:13;98958.84;;;4.92;100.00
18323;BME280;9287;49.456;11.064;2023-11-18T00:13:42;98957.69;;;4.98;100.00
18323;BME280;9287;49.456;11.064;2023-11-18T00:16:10;98962.53;;;5.01;100.00
18323;BME280;9287;49.456;11.064;2023-11-18T00:18:40;98962.53;;;5.01;100.00
18323;BME280;9287;49.456;11.064;2023-11-18T00:21:09;98969.56;;;5.02;100.00
18323;BME280;9287;49.456;11.064;2023-11-18T00:23:41;98966.44;;;4.89;100.00
18323;BME280;9287;49.456;11.064;2023-11-18T00:26:09;98969.25;;;4.84;100.00
18323;BME280;9287;49.456;11.064;2023-11-18T00:28:38;98960.00;;;4.85;100.00
18323;BME280;9287;49.456;11.064;2023-11-18T00:31:05;98959.94;;;4.90;100.00
18323;BME280;9287;49.456;11.064;2023-11-18T00:33:34;98960.47;;;4.93;100.00
18323;BME280;9287;49.456;11.064;2023-11-18T00:36:03;98959.44;;;4.88;100.00
18323;BME280;9287;49.456;11.064;2023-11-18T00:38:31;98963.41;;;4.96;100.00
18323;BME280;9287;49.456;11.064;2023-11-18T00:41:00;98958.84;;;4.92;100.00
18323;BME280;9287;49.456;11.064;2023-11-18T00:43:28;98958.63;;;4.88;100.00
18323;BME280;9287;49.456;11.064;2023-11-18T00:45:57;98959.56;;;4.78;100.00
18323;BME280;9287;49.456;11.064;2023-11-18T00:48:26;98953.13;;;4.74;100.00
18323;BME280;9287;49.456;11.064;2023-11-18T00:50:56;98953.69;;;4.71;100.00
18323;BME280;9287;49.456;11.064;2023-11-18T00:53:24;98952.47;;;4.64;100.00
18323;BME280;9287;49.456;11.064;2023-11-18T00:55:52;98956.50;;;4.66;100.00
18323;BME280;9287;49.456;11.064;2023-11-18T00:58:22;98955.88;;;4.69;100.00
18323;BME280;9287;49.456;11.064;2023-11-18T01:00:50;98948.06;;;4.68;100.00
18323;BME280;9287;49.456;11.064;2023-11-18T01:03:19;98962.91;;;4.70;100.00
18323;BME280;9287;49.456;11.064;2023-11-18T01:05:47;98958.22;;;4.57;100.00
18323;BME280;9287;49.456;11.064;2023-11-18T01:08:15;98958.09;;;4.67;100.00
18323;BME280;9287;49.456;11.064;2023-11-18T01:10:44;98958.88;;;4.68;100.00
18323;BME280;9287;49.456;11.064;2023-11-18T01:13:12;98963.50;;;4.67;100.00
18323;BME280;9287;49.456;11.064;2023-11-18T01:15:44;98958.50;;;4.55;100.00
18323;BME280;9287;49.456;11.064;2023-11-18T01:18:11;98967.88;;;4.63;100.00
18323;BME280;9287;49.456;11.064;2023-11-18T01:20:40;98973.81;;;4.65;100.00
18323;BME280;9287;49.456;11.064;2023-11-18T01:23:07;98963.28;;;4.64;100.00
18323;BME280;9287;49.456;11.064;2023-11-18T01:25:35;98981.00;;;4.51;100.00
18323;BME280;9287;49.456;11.064;2023-11-18T01:28:08;98968.53;;;4.31;100.00
18323;BME280;9287;49.456;11.064;2023-11-18T01:30:36;98976.00;;;4.15;100.00
18323;BME280;9287;49.456;11.064;2023-11-18T01:33:05;98979.84;;;4.09;100.00
18323;BME280;9287;49.456;11.064;2023-11-18T01:35:34;98978.78;;;4.05;100.00
18323;BME280;9287;49.456;11.064;2023-11-18T01:38:02;98984.19;;;4.05;100.00
18323;BME280;9287;49.456;11.064;2023-11-18T01:40:34;98981.59;;;3.95;100.00
18323;BME280;9287;49.456;11.064;2023-11-18T01:43:02;98982.75;;;3.84;100.00
18323;BME280;9287;49.456;11.064;2023-11-18T01:45:37;98988.72;;;3.81;100.00
18323;BME280;9287;49.456;11.064;2023-11-18T01:48:09;98989.31;;;3.78;100.00
18323;BME280;9287;49.456;11.064;2023-11-18T01:50:40;98985.53;;;3.79;100.00
18323;BME280;9287;49.456;11.064;2023-11-18T01:53:09;98987.59;;;3.87;100.00
18323;BME280;9287;49.456;11.064;2023-11-18T01:55:41;98989.19;;;3.93;100.00
18323;BME280;9287;49.456;11.064;2023-11-18T01:58:09;98981.53;;;4.00;100.00
18323;BME280;9287;49.456;11.064;2023-11-18T02:00:41;98977.31;;;3.89;100.00
18323;BME280;9287;49.456;11.064;2023-11-18T02:03:10;98989.22;;;3.88;100.00
18323;BME280;9287;49.456;11.064;2023-11-18T02:05:38;98988.56;;;4.01;100.00
18323;BME280;9287;49.456;11.064;2023-11-18T02:08:06;98985.81;;;4.06;100.00
18323;BME280;9287;49.456;11.064;2023-11-18T02:10:36;98986.13;;;4.00;100.00
18323;BME280;9287;49.456;11.064;2023-11-18T02:13:12;98986.72;;;3.97;100.00
18323;BME280;9287;49.456;11.064;2023-11-18T02:15:47;98988.09;;;3.94;100.00
18323;BME280;9287;49.456;11.064;2023-11-18T02:18:16;98992.97;;;3.92;100.00
18323;BME280;9287;49.456;11.064;2023-11-18T02:20:46;99000.72;;;3.99;100.00
18323;BME280;9287;49.456;11.064;2023-11-18T02:23:15;98994.03;;;3.96;100.00
18323;BME280;9287;49.456;11.064;2023-11-18T02:25:45;98989.75;;;3.90;100.00
18323;BME280;9287;49.456;11.064;2023-11-18T02:28:14;98991.88;;;3.93;100.00
18323;BME280;9287;49.456;11.064;2023-11-18T02:30:42;98999.47;;;3.91;100.00
18323;BME280;9287;49.456;11.064;2023-11-18T02:33:16;99001.06;;;3.92;100.00
18323;BME280;9287;49.456;11.064;2023-11-18T02:35:50;99002.75;;;3.83;100.00
18323;BME280;9287;49.456;11.064;2023-11-18T02:38:22;98998.16;;;3.83;100.00
18323;BME280;9287;49.456;11.064;2023-11-18T02:40:55;98994.13;;;3.81;100.00
18323;BME280;9287;49.456;11.064;2023-11-18T02:43:26;98993.00;;;3.87;100.00
18323;BME280;9287;49.456;11.064;2023-11-18T02:45:56;98988.09;;;3.94;100.00
18323;BME280;9287;49.456;11.064;2023-11-18T02:48:26;98998.91;;;3.94;100.00
18323;BME280;9287;49.456;11.064;2023-11-18T02:50:54;98991.91;;;3.88;100.00
18323;BME280;9287;49.456;11.064;2023-11-18T02:53:22;98998.41;;;3.87;100.00
18323;BME280;9287;49.456;11.064;2023-11-18T02:55:51;99004.38;;;3.84;100.00
18323;BME280;9287;49.456;11.064;2023-11-18T02:58:20;99012.97;;;3.91;100.00
18323;BME280;9287;49.456;11.064;2023-11-18T03:00:48;99000.06;;;3.83;100.00
18323;BME280;9287;49.456;11.064;2023-11-18T03:03:16;99000.56;;;3.90;100.00
18323;BME280;9287;49.456;11.064;2023-11-18T03:05:44;99006.47;;;3.92;100.00
18323;BME280;9287;49.456;11.064;2023-11-18T03:08:12;99007.03;;;3.89;100.00
18323;BME280;9287;49.456;11.064;2023-11-18T03:10:40;99014.16;;;3.80;100.00
18323;BME280;9287;49.456;11.064;2023-11-18T03:13:11;99007.72;;;3.76;100.00
18323;BME280;9287;49.456;11.064;2023-11-18T03:15:40;99013.09;;;3.42;100.00
18323;BME280;9287;49.456;11.064;2023-11-18T03:18:09;99020.41;;;3.36;100.00
18323;BME280;9287;49.456;11.064;2023-11-18T03:20:37;99027.53;;;3.22;100.00
18323;BME280;9287;49.456;11.064;2023-11-18T03:23:05;99020.47;;;3.26;100.00
18323;BME280;9287;49.456;11.064;2023-11-18T03:25:36;99015.28;;;2.91;100.00
18323;BME280;9287;49.456;11.064;2023-11-18T03:28:04;99025.22;;;2.95;100.00
18323;BME280;9287;49.456;11.064;2023-11-18T03:30:33;99030.59;;;3.00;100.00
18323;BME280;9287;49.456;11.064;2023-11-18T03:33:04;99031.47;;;2.86;100.00
18323;BME280;9287;49.456;11.064;2023-11-18T03:35:36;99024.53;;;2.74;100.00
18323;BME280;9287;49.456;11.064;2023-11-18T03:38:05;99024.00;;;2.67;100.00
18323;BME280;9287;49.456;11.064;2023-11-18T03:40:33;99026.16;;;2.65;100.00
18323;BME280;9287;49.456;11.064;2023-11-18T03:43:01;99028.84;;;2.70;100.00
18323;BME280;9287;49.456;11.064;2023-11-18T03:45:30;99032.56;;;2.79;100.00
18323;BME280;9287;49.456;11.064;2023-11-18T03:47:58;99033.16;;;2.66;100.00
18323;BME280;9287;49.456;11.064;2023-11-18T03:50:29;99027.78;;;2.61;100.00
18323;BME280;9287;49.456;11.064;2023-11-18T03:52:56;99029.41;;;2.62;100.00
18323;BME280;9287;49.456;11.064;2023-11-18T03:55:25;99029.94;;;2.64;100.00
18323;BME280;9287;49.456;11.064;2023-11-18T03:57:53;99032.09;;;2.62;100.00
18323;BME280;9287;49.456;11.064;2023-11-18T04:00:21;99032.09;;;2.62;100.00
18323;BME280;9287;49.456;11.064;2023-11-18T04:02:49;99036.91;;;2.75;100.00
18323;BME280;9287;49.456;11.064;2023-11-18T04:05:17;99033.16;;;2.76;100.00
18323;BME280;9287;49.456;11.064;2023-11-18T04:07:46;99035.84;;;2.66;100.00
18323;BME280;9287;49.456;11.064;2023-11-18T04:10:15;99042.88;;;2.67;100.00
18323;BME280;9287;49.456;11.064;2023-11-18T04:12:44;99040.13;;;2.77;100.00
18323;BME280;9287;49.456;11.064;2023-11-18T04:15:14;99036.94;;;2.65;100.00
18323;BME280;9287;49.456;11.064;2023-11-18T04:17:42;99034.25;;;2.60;100.00
18323;BME280;9287;49.456;11.064;2023-11-18T04:20:11;99040.19;;;2.62;100.00
18323;BME280;9287;49.456;11.064;2023-11-18T04:22:43;99040.25;;;2.37;100.00
18323;BME280;9287;49.456;11.064;2023-11-18T04:25:13;99043.50;;;2.29;100.00
18323;BME280;9287;49.456;11.064;2023-11-18T04:27:41;99045.63;;;2.47;100.00
18323;BME280;9287;49.456;11.064;2023-11-18T04:30:13;99042.38;;;2.50;100.00
18323;BME280;9287;49.456;11.064;2023-11-18T04:32:41;99035.88;;;2.61;100.00
18323;BME280;9287;49.456;11.064;2023-11-18T04:35:10;99042.88;;;2.62;100.00
18323;BME280;9287;49.456;11.064;2023-11-18T04:37:39;99047.78;;;2.55;100.00
18323;BME280;9287;49.456;11.064;2023-11-18T04:40:10;99045.34;;;2.49;100.00
18323;BME280;9287;49.456;11.064;2023-11-18T04:42:42;99041.31;;;2.51;100.00
18323;BME280;9287;49.456;11.064;2023-11-18T04:45:10;99044.53;;;2.53;100.00
18323;BME280;9287;49.456;11.064;2023-11-18T04:47:40;99042.16;;;2.41;100.00
18323;BME280;9287;49.456;11.064;2023-11-18T04:50:10;99040.22;;;2.47;100.00
18323;BME280;9287;49.456;11.064;2023-11-18T04:52:38;99038.66;;;2.41;100.00
18323;BME280;9287;49.456;11.064;2023-11-18T04:55:07;99029.16;;;2.54;100.00
18323;BME280;9287;49.456;11.064;2023-11-18T04:57:36;99029.75;;;2.30;100.00
18323;BME280;9287;49.456;11.064;2023-11-18T05:00:08;99021.94;;;2.29;100.00
18323;BME280;9287;49.456;11.064;2023-11-18T05:02:38;99026.28;;;2.15;100.00
18323;BME280;9287;49.456;11.064;2023-11-18T05:05:06;99018.75;;;2.22;100.00
18323;BME280;9287;49.456;11.064;2023-11-18T05:07:34;99019.78;;;2.26;100.00
18323;BME280;9287;49.456;11.064;2023-11-18T05:10:02;99013.84;;;2.29;100.00
18323;BME280;9287;49.456;11.064;2023-11-18T05:12:32;99009.56;;;2.13;100.00
18323;BME280;9287;49.456;11.064;2023-11-18T05:15:03;99015.22;;;2.11;100.00
18323;BME280;9287;49.456;11.064;2023-11-18T05:17:36;99017.13;;;1.95;100.00
18323;BME280;9287;49.456;11.064;2023-11-18T05:20:05;99019.84;;;2.05;100.00
18323;BME280;9287;49.456;11.064;2023-11-18T05:22:37;99019.81;;;2.10;100.00
18323;BME280;9287;49.456;11.064;2023-11-18T05:25:06;99038.13;;;2.24;100.00
18323;BME280;9287;49.456;11.064;2023-11-18T05:27:37;99039.72;;;2.35;100.00
18323;BME280;9287;49.456;11.064;2023-11-18T05:30:08;99031.16;;;2.07;100.00
18323;BME280;9287;49.456;11.064;2023-11-18T05:32:39;99034.63;;;2.23;100.00
18323;BME280;9287;49.456;11.064;2023-11-18T05:35:08;99037.06;;;2.25;100.00
18323;BME280;9287;49.456;11.064;2023-11-18T05:37:38;99030.59;;;2.10;100.00
18323;BME280;9287;49.456;11.064;2023-11-18T05:40:08;99047.31;;;2.18;100.00
18323;BME280;9287;49.456;11.064;2023-11-18T05:42:38;99044.59;;;2.23;100.00
18323;BME280;9287;49.456;11.064;2023-11-18T05:45:10;99042.97;;;2.32;100.00
18323;BME280;9287;49.456;11.064;2023-11-18T05:47:48;99043.53;;;2.19;100.00
18323;BME280;9287;49.456;11.064;2023-11-18T05:50:16;99041.91;;;2.23;100.00
18323;BME280;9287;49.456;11.064;2023-11-18T05:52:44;99045.94;;;2.20;100.00
18323;BME280;9287;49.456;11.064;2023-11-18T05:55:12;99045.66;;;2.27;100.00
18323;BME280;9287;49.456;11.064;2023-11-18T05:57:40;99044.56;;;2.28;100.00
18323;BME280;9287;49.456;11.064;2023-11-18T06:00:16;99052.69;;;2.23;100.00
18323;BME280;9287;49.456;11.064;2023-11-18T06:02:57;99045.16;;;2.15;100.00
18323;BME280;9287;49.456;11.064;2023-11-18T06:05:25;99047.84;;;2.09;100.00
18323;BME280;9287;49.456;11.064;2023-11-18T06:07:56;99047.31;;;1.97;100.00
18323;BME280;9287;49.456;11.064;2023-11-18T06:10:25;99043.81;;;1.92;100.00
18323;BME280;9287;49.456;11.064;2023-11-18T06:12:57;99054.88;;;1.85;100.00
18323;BME280;9287;49.456;11.064;2023-11-18T06:15:25;99052.16;;;2.00;100.00
18323;BME280;9287;49.456;11.064;2023-11-18T06:17:54;99054.84;;;2.00;100.00
18323;BME280;9287;49.456;11.064;2023-11-18T06:20:24;99057.56;;;2.00;100.00
18323;BME280;9287;49.456;11.064;2023-11-18T06:22:51;99052.69;;;2.18;100.00
18323;BME280;9287;49.456;11.064;2023-11-18T06:25:22;99049.47;;;2.05;100.00
18323;BME280;9287;49.456;11.064;2023-11-18T06:27:52;99054.31;;;2.08;100.00
18323;BME280;9287;49.456;11.064;2023-11-18T06:30:20;99051.09;;;2.06;100.00
18323;BME280;9287;49.456;11.064;2023-11-18T06:32:49;99048.91;;;2.19;100.00
18323;BME280;9287;49.456;11.064;2023-11-18T06:35:18;99048.38;;;2.22;100.00
18323;BME280;9287;49.456;11.064;2023-11-18T06:37:49;99054.88;;;2.05;100.00
18323;BME280;9287;49.456;11.064;2023-11-18T06:40:17;99046.75;;;2.10;100.00
18323;BME280;9287;49.456;11.064;2023-11-18T06:42:45;99047.84;;;1.94;100.00
18323;BME280;9287;49.456;11.064;2023-11-18T06:45:14;99052.97;;;2.01;100.00
18323;BME280;9287;49.456;11.064;2023-11-18T06:47:43;99057.00;;;1.83;100.00
18323;BME280;9287;49.456;11.064;2023-11-18T06:50:12;99052.97;;;1.81;100.00
18323;BME280;9287;49.456;11.064;2023-11-18T06:52:42;99038.72;;;1.85;100.00
18323;BME280;9287;49.456;11.064;2023-11-18T06:55:14;99037.09;;;1.84;100.00
18323;BME280;9287;49.456;11.064;2023-11-18T06:57:43;99048.66;;;1.80;100.00
18323;BME280;9287;49.456;11.064;2023-11-18T07:00:12;99042.44;;;1.74;100.00
18323;BME280;9287;49.456;11.064;2023-11-18T07:02:42;99059.97;;;1.82;100.00
18323;BME280;9287;49.456;11.064;2023-11-18T07:05:10;99047.31;;;1.87;100.00
18323;BME280;9287;49.456;11.064;2023-11-18T07:07:38;99051.09;;;1.81;100.00
18323;BME280;9287;49.456;11.064;2023-11-18T07:10:08;99054.31;;;1.83;100.00
18323;BME280;9287;49.456;11.064;2023-11-18T07:12:41;99053.25;;;1.84;100.00
18323;BME280;9287;49.456;11.064;2023-11-18T07:15:10;99067.25;;;1.86;100.00
18323;BME280;9287;49.456;11.064;2023-11-18T07:17:38;99072.63;;;1.71;100.00
18323;BME280;9287;49.456;11.064;2023-11-18T07:20:07;99071.00;;;1.55;100.00
18323;BME280;9287;49.456;11.064;2023-11-18T07:22:38;99080.16;;;1.54;100.00
18323;BME280;9287;49.456;11.064;2023-11-18T07:25:06;99084.97;;;1.57;100.00
18323;BME280;9287;49.456;11.064;2023-11-18T07:27:35;99085.25;;;1.60;100.00
18323;BME280;9287;49.456;11.064;2023-11-18T07:30:06;99096.31;;;1.74;100.00
18323;BME280;9287;49.456;11.064;2023-11-18T07:32:37;99088.25;;;1.69;100.00
18323;BME280;9287;49.456;11.064;2023-11-18T07:35:07;99095.81;;;1.87;100.00
18323;BME280;9287;49.456;11.064;2023-11-18T07:37:38;99093.09;;;1.97;100.00
18323;BME280;9287;49.456;11.064;2023-11-18T07:40:07;99094.72;;;1.83;100.00
18323;BME280;9287;49.456;11.064;2023-11-18T07:42:38;99097.41;;;1.98;100.00
18323;BME280;9287;49.456;11.064;2023-11-18T07:45:09;99098.47;;;1.92;100.00
18323;BME280;9287;49.456;11.064;2023-11-18T07:47:44;99099.56;;;1.86;100.00
18323;BME280;9287;49.456;11.064;2023-11-18T07:50:15;99098.50;;;2.18;100.00
18323;BME280;9287;49.456;11.064;2023-11-18T07:52:43;99098.50;;;2.13;100.00
18323;BME280;9287;49.456;11.064;2023-11-18T07:55:11;99094.19;;;2.01;100.00
18323;BME280;9287;49.456;11.064;2023-11-18T07:57:39;99099.56;;;1.91;100.00
18323;BME280;9287;49.456;11.064;2023-11-18T08:00:10;99104.16;;;2.06;100.00
18323;BME280;9287;49.456;11.064;2023-11-18T08:02:38;99099.53;;;2.57;100.00
18323;BME280;9287;49.456;11.064;2023-11-18T08:05:06;99094.97;;;2.27;100.00
18323;BME280;9287;49.456;11.064;2023-11-18T08:07:35;99101.69;;;2.45;100.00
18323;BME280;9287;49.456;11.064;2023-11-18T08:10:06;99111.38;;;2.61;100.00
18323;BME280;9287;49.456;11.064;2023-11-18T08:12:39;99116.72;;;2.82;100.00
18323;BME280;9287;49.456;11.064;2023-11-18T08:15:09;99122.69;;;2.63;100.00
18323;BME280;9287;49.456;11.064;2023-11-18T08:17:37;99127.78;;;2.85;100.00
18323;BME280;9287;49.456;11.064;2023-11-18T08:20:06;99123.53;;;2.59;100.00
18323;BME280;9287;49.456;11.064;2023-11-18T08:22:41;99120.84;;;2.43;100.00
18323;BME280;9287;49.456;11.064;2023-11-18T08:25:10;99112.25;;;2.41;100.00
18323;BME280;9287;49.456;11.064;2023-11-18T08:27:39;99104.34;;;2.70;100.00
18323;BME280;9287;49.456;11.064;2023-11-18T08:30:10;99104.84;;;2.88;100.00
18323;BME280;9287;49.456;11.064;2023-11-18T08:32:40;99101.09;;;2.78;100.00
18323;BME280;9287;49.456;11.064;2023-11-18T08:35:11;99110.81;;;2.74;100.00
18323;BME280;9287;49.456;11.064;2023-11-18T08:37:41;99089.47;;;2.88;100.00
18323;BME280;9287;49.456;11.064;2023-11-18T08:40:11;99107.53;;;2.93;100.00
18323;BME280;9287;49.456;11.064;2023-11-18T08:42:42;99091.81;;;3.10;100.00
18323;BME280;9287;49.456;11.064;2023-11-18T08:45:17;99099.59;;;3.22;100.00
18323;BME280;9287;49.456;11.064;2023-11-18T08:47:45;99100.41;;;3.22;100.00
18323;BME280;9287;49.456;11.064;2023-11-18T08:50:13;99105.13;;;2.91;100.00
18323;BME280;9287;49.456;11.064;2023-11-18T08:52:43;99105.25;;;3.25;100.00
18323;BME280;9287;49.456;11.064;2023-11-18T08:55:14;99105.78;;;3.27;100.00
18323;BME280;9287;49.456;11.064;2023-11-18T08:57:46;99098.31;;;3.04;100.00
18323;BME280;9287;49.456;11.064;2023-11-18T09:00:30;99107.44;;;3.13;100.00
18323;BME280;9287;49.456;11.064;2023-11-18T09:03:16;99117.88;;;3.40;100.00
18323;BME280;9287;49.456;11.064;2023-11-18T09:05:54;99118.13;;;3.43;100.00
18323;BME280;9287;49.456;11.064;2023-11-18T09:08:26;99112.03;;;3.67;100.00
18323;BME280;9287;49.456;11.064;2023-11-18T09:10:59;99103.69;;;4.02;100.00
18323;BME280;9287;49.456;11.064;2023-11-18T09:13:28;99095.75;;;4.45;100.00
18323;BME280;9287;49.456;11.064;2023-11-18T09:15:59;99096.66;;;4.64;100.00
18323;BME280;9287;49.456;11.064;2023-11-18T09:18:30;99101.06;;;4.55;100.00
18323;BME280;9287;49.456;11.064;2023-11-18T09:21:00;99105.47;;;4.75;100.00
18323;BME280;9287;49.456;11.064;2023-11-18T09:23:31;99111.88;;;4.55;100.00
18323;BME280;9287;49.456;11.064;2023-11-18T09:26:01;99111.69;;;4.75;100.00
18323;BME280;9287;49.456;11.064;2023-11-18T09:28:35;99106.03;;;4.72;100.00
18323;BME280;9287;49.456;11.064;2023-11-18T09:31:05;99093.00;;;4.50;100.00
18323;BME280;9287;49.456;11.064;2023-11-18T09:33:39;99089.72;;;4.53;100.00
18323;BME280;9287;49.456;11.064;2023-11-18T09:36:11;99083.47;;;4.81;100.00
18323;BME280;9287;49.456;11.064;2023-11-18T09:38:40;99080.84;;;5.00;100.00
18323;BME280;9287;49.456;11.064;2023-11-18T09:41:10;99085.78;;;5.17;100.00
18323;BME280;9287;49.456;11.064;2023-11-18T09:43:39;99088.75;;;4.92;100.00
18323;BME280;9287;49.456;11.064;2023-11-18T09:46:15;99079.75;;;5.20;100.00
18323;BME280;9287;49.456;11.064;2023-11-18T09:48:44;99087.06;;;5.01;100.00
18323;BME280;9287;49.456;11.064;2023-11-18T09:51:15;99090.56;;;5.20;100.00
18323;BME280;9287;49.456;11.064;2023-11-18T09:53:50;99093.44;;;5.90;100.00
18323;BME280;9287;49.456;11.064;2023-11-18T09:56:23;99082.75;;;6.31;100.00
18323;BME280;9287;49.456;11.064;2023-11-18T09:59:11;99079.47;;;7.30;100.00
18323;BME280;9287;49.456;11.064;2023-11-18T10:01:53;99086.09;;;7.51;100.00
18323;BME280;9287;49.456;11.064;2023-11-18T10:04:23;99087.88;;;7.06;100.00
18323;BME280;9287;49.456;11.064;2023-11-18T10:06:54;99077.78;;;6.79;100.00
18323;BME280;9287;49.456;11.064;2023-11-18T10:09:23;99073.75;;;6.63;100.00
18323;BME280;9287;49.456;11.064;2023-11-18T10:11:55;99074.97;;;6.57;100.00
18323;BME280;9287;49.456;11.064;2023-11-18T10:14:34;99068.13;;;6.59;100.00
18323;BME280;9287;49.456;11.064;2023-11-18T10:17:05;99064.81;;;7.04;100.00
18323;BME280;9287;49.456;11.064;2023-11-18T10:19:49;99055.16;;;7.25;100.00
18323;BME280;9287;49.456;11.064;2023-11-18T10:22:21;99067.50;;;8.03;100.00
18323;BME280;9287;49.456;11.064;2023-11-18T10:24:55;99071.72;;;8.09;100.00
18323;BME280;9287;49.456;11.064;2023-11-18T10:27:28;99070.94;;;8.62;100.00
18323;BME280;9287;49.456;11.064;2023-11-18T10:29:56;99072.31;;;8.51;100.00
18323;BME280;9287;49.456;11.064;2023-11-18T10:32:26;99077.84;;;8.68;100.00
18323;BME280;9287;49.456;11.064;2023-11-18T10:34:56;99076.19;;;8.89;100.00
18323;BME280;9287;49.456;11.064;2023-11-18T10:37:31;99066.78;;;9.87;100.00
18323;BME280;9287;49.456;11.064;2023-11-18T10:40:04;99063.97;;;10.56;100.00
18323;BME280;9287;49.456;11.064;2023-11-18T10:42:32;99068.66;;;10.29;100.00
18323;BME280;9287;49.456;11.064;2023-11-18T10:45:01;99062.03;;;9.27;100.00
18323;BME280;9287;49.456;11.064;2023-11-18T10:47:34;99074.28;;;9.90;100.00
18323;BME280;9287;49.456;11.064;2023-11-18T10:50:03;99069.31;;;9.92;100.00
18323;BME280;9287;49.456;11.064;2023-11-18T10:52:31;99070.41;;;8.91;100.00
18323;BME280;9287;49.456;11.064;2023-11-18T10:55:02;99075.06;;;9.56;100.00
18323;BME280;9287;49.456;11.064;2023-11-18T10:57:39;99062.38;;;9.34;100.00
18323;BME280;9287;49.456;11.064;2023-11-18T11:00:10;99067.34;;;9.40;100.00
18323;BME280;9287;49.456;11.064;2023-11-18T11:02:43;99071.03;;;9.36;100.00
18323;BME280;9287;49.456;11.064;2023-11-18T11:05:27;99067.50;;;9.27;100.00
18323;BME280;9287;49.456;11.064;2023-11-18T11:08:00;99060.03;;;9.01;100.00
18323;BME280;9287;49.456;11.064;2023-11-18T11:10:29;99059.34;;;8.87;100.00
18323;BME280;9287;49.456;11.064;2023-11-18T11:13:00;99054.06;;;8.91;100.00
18323;BME280;9287;49.456;11.064;2023-11-18T11:15:30;99052.91;;;8.83;100.00
18323;BME280;9287;49.456;11.064;2023-11-18T11:18:19;99046.47;;;8.17;100.00
18323;BME280;9287;49.456;11.064;2023-11-18T11:20:57;99047.59;;;8.38;100.00
18323;BME280;9287;49.456;11.064;2023-11-18T11:23:35;99051.88;;;8.62;100.00
18323;BME280;9287;49.456;11.064;2023-11-18T11:26:20;99053.88;;;8.25;100.00
18323;BME280;9287;49.456;11.064;2023-11-18T11:29:01;99051.25;;;8.34;100.00
18323;BME280;9287;49.456;11.064;2023-11-18T11:31:34;99056.50;;;8.30;100.00
18323;BME280;9287;49.456;11.064;2023-11-18T11:34:12;99050.06;;;8.26;100.00
18323;BME280;9287;49.456;11.064;2023-11-18T11:36:44;99045.72;;;8.25;100.00
18323;BME280;9287;49.456;11.064;2023-11-18T11:39:13;99042.91;;;8.08;100.00
18323;BME280;9287;49.456;11.064;2023-11-18T11:41:55;99039.69;;;8.06;100.00
18323;BME280;9287;49.456;11.064;2023-11-18T11:44:28;99042.31;;;7.97;100.00
18323;BME280;9287;49.456;11.064;2023-11-18T11:46:59;99035.72;;;7.90;100.00
18323;BME280;9287;49.456;11.064;2023-11-18T11:49:36;99031.22;;;8.08;100.00
18323;BME280;9287;49.456;11.064;2023-11-18T11:52:10;99025.06;;;8.24;100.00
18323;BME280;9287;49.456;11.064;2023-11-18T11:54:51;99022.13;;;8.12;100.00
18323;BME280;9287;49.456;11.064;2023-11-18T11:57:32;99018.53;;;8.03;100.00
18323;BME280;9287;49.456;11.064;2023-11-18T12:00:09;99015.09;;;8.11;100.00
18323;BME280;9287;49.456;11.064;2023-11-18T12:02:52;99002.31;;;8.20;100.00
18323;BME280;9287;49.456;11.064;2023-11-18T12:05:25;99002.06;;;8.30;100.00
18323;BME280;9287;49.456;11.064;2023-11-18T12:07:55;99000.53;;;8.38;100.00
18323;BME280;9287;49.456;11.064;2023-11-18T12:10:26;98995.88;;;8.16;100.00
18323;BME280;9287;49.456;11.064;2023-11-18T12:13:07;98990.56;;;8.33;100.00
18323;BME280;9287;49.456;11.064;2023-11-18T12:15:53;98974.09;;;8.78;100.00
18323;BME280;9287;49.456;11.064;2023-11-18T12:18:24;98965.16;;;9.03;100.00
18323;BME280;9287;49.456;11.064;2023-11-18T12:20:54;98951.06;;;9.01;100.00
18323;BME280;9287;49.456;11.064;2023-11-18T12:23:23;98953.16;;;8.96;100.00
18323;BME280;9287;49.456;11.064;2023-11-18T12:25:53;98935.97;;;8.78;100.00
18323;BME280;9287;49.456;11.064;2023-11-18T12:28:26;98940.75;;;8.64;100.00
18323;BME280;9287;49.456;11.064;2023-11-18T12:30:54;98918.00;;;8.60;100.00
18323;BME280;9287;49.456;11.064;2023-11-18T12:34:00;98926.97;;;8.69;100.00
18323;BME280;9287;49.456;11.064;2023-11-18T12:40:22;98907.06;;;8.43;100.00
18323;BME280;9287;49.456;11.064;2023-11-18T12:42:59;98901.59;;;8.43;100.00
18323;BME280;9287;49.456;11.064;2023-11-18T12:46:06;98898.41;;;8.41;100.00
18323;BME280;9287;49.456;11.064;2023-11-18T12:48:43;98893.84;;;8.27;100.00
18323;BME280;9287;49.456;11.064;2023-11-18T12:51:13;98905.34;;;8.24;100.00
18323;BME280;9287;49.456;11.064;2023-11-18T12:53:49;98906.16;;;8.25;100.00
18323;BME280;9287;49.456;11.064;2023-11-18T12:56:22;98902.22;;;8.40;100.00
18323;BME280;9287;49.456;11.064;2023-11-18T12:58:51;98895.00;;;8.35;100.00
18323;BME280;9287;49.456;11.064;2023-11-18T13:01:21;98899.66;;;8.34;100.00
18323;BME280;9287;49.456;11.064;2023-11-18T13:03:50;98901.13;;;8.41;100.00
18323;BME280;9287;49.456;11.064;2023-11-18T13:06:21;98890.41;;;8.53;100.00
18323;BME280;9287;49.456;11.064;2023-11-18T13:08:55;98897.13;;;8.47;100.00
18323;BME280;9287;49.456;11.064;2023-11-18T13:11:25;98892.38;;;8.61;100.00
18323;BME280;9287;49.456;11.064;2023-11-18T13:13:53;98903.25;;;8.61;100.00
18323;BME280;9287;49.456;11.064;2023-11-18T13:16:22;98896.03;;;8.56;100.00
18323;BME280;9287;49.456;11.064;2023-11-18T13:18:52;98892.94;;;8.41;100.00
18323;BME280;9287;49.456;11.064;2023-11-18T13:21:22;98879.84;;;8.43;100.00
18323;BME280;9287;49.456;11.064;2023-11-18T13:23:52;98877.78;;;8.17;100.00